createdAt,value
2019-03-05T00:01:15.237Z,94626.31
2019-03-05T00:03:44.358Z,94629.20
2019-03-05T00:06:13.588Z,94631.33
2019-03-05T00:08:42.774Z,94619.87
2019-03-05T00:11:11.764Z,94619.86
2019-03-05T00:13:41.008Z,94621.39
2019-03-05T00:16:10.647Z,94622.59
2019-03-05T00:18:39.810Z,94606.78
2019-03-05T00:21:08.987Z,94607.45
2019-03-05T00:23:59.276Z,94632.66
2019-03-05T00:26:33.737Z,94620.53
2019-03-05T00:29:47.519Z,94617.05
2019-03-05T00:32:16.485Z,94616.87
2019-03-05T00:34:57.069Z,94619.53
2019-03-05T00:37:33.603Z,94611.95
2019-03-05T00:40:09.147Z,94616.38
2019-03-05T00:42:48.997Z,94614.77
2019-03-05T00:45:36.143Z,94622.52
2019-03-05T00:50:33.807Z,94617.94
2019-03-05T00:54:08.831Z,94634.06
2019-03-05T00:56:47.673Z,94628.55
2019-03-05T00:59:32.142Z,94624.27
2019-03-05T01:02:15.457Z,94619.96
2019-03-05T01:04:56.669Z,94591.27
2019-03-05T01:07:25.836Z,94638.89
2019-03-05T01:09:55.406Z,94634.02
2019-03-05T01:12:24.656Z,94636.05
2019-03-05T01:14:54.032Z,94636.21
2019-03-05T01:17:23.187Z,94620.11
2019-03-05T01:19:52.832Z,94630.32
2019-03-05T01:22:22.047Z,94626.74
2019-03-05T01:24:51.107Z,94608.17
2019-03-05T01:27:20.695Z,94613.34
2019-03-05T01:29:50.259Z,94619.41
2019-03-05T01:32:53.792Z,94622.39
2019-03-05T01:35:29.908Z,94608.11
2019-03-05T01:37:59.126Z,94621.00
2019-03-05T01:40:33.131Z,94629.33
2019-03-05T01:43:01.947Z,94598.70
2019-03-05T01:45:31.231Z,94601.42
2019-03-05T01:48:00.537Z,94608.03
2019-03-05T01:50:29.823Z,94594.16
2019-03-05T01:52:59.304Z,94598.48
2019-03-05T01:55:28.296Z,94594.52
2019-03-05T01:57:57.532Z,94578.98
2019-03-05T02:00:26.812Z,94586.74
2019-03-05T02:02:55.800Z,94583.44
2019-03-05T02:05:25.582Z,94580.00
2019-03-05T02:07:55.619Z,94571.94
2019-03-05T02:10:24.448Z,94575.45
2019-03-05T02:12:53.436Z,94573.73
2019-03-05T02:15:23.082Z,94573.87
2019-03-05T02:17:52.163Z,94570.04
2019-03-05T02:20:23.243Z,94569.05
2019-03-05T02:23:05.586Z,94567.78
2019-03-05T02:25:48.342Z,94563.45
2019-03-05T02:29:33.186Z,94567.42
2019-03-05T02:32:12.906Z,94567.08
2019-03-05T02:36:05.381Z,94566.17
2019-03-05T02:38:42.113Z,94575.95
2019-03-05T02:42:23.545Z,94567.21
2019-03-05T02:45:19.192Z,94562.31
2019-03-05T02:50:03.626Z,94567.51
2019-03-05T02:52:49.212Z,94569.30
2019-03-05T02:56:34.188Z,94571.47
2019-03-05T02:59:02.022Z,94564.92
2019-03-05T03:01:44.150Z,94547.08
2019-03-05T03:04:15.432Z,94548.90
2019-03-05T03:06:44.476Z,94548.38
2019-03-05T03:10:19.160Z,94546.54
2019-03-05T03:12:48.129Z,94573.08
2019-03-05T03:15:18.179Z,94586.77
2019-03-05T03:17:47.543Z,94577.38
2019-03-05T03:20:18.160Z,94581.56
2019-03-05T03:22:47.042Z,94574.58
2019-03-05T03:25:19.053Z,94573.95
2019-03-05T03:27:48.150Z,94598.42
2019-03-05T03:30:18.766Z,94600.23
2019-03-05T03:32:47.860Z,94605.52
2019-03-05T03:35:17.065Z,94613.28
2019-03-05T03:37:46.131Z,94602.23
2019-03-05T03:40:22.453Z,94587.53
2019-03-05T03:42:52.121Z,94601.06
2019-03-05T03:45:23.692Z,94603.65
2019-03-05T03:47:53.287Z,94607.47
2019-03-05T03:50:22.424Z,94607.84
2019-03-05T03:52:51.422Z,94612.64
2019-03-05T03:55:20.650Z,94621.28
2019-03-05T03:57:49.736Z,94625.25
2019-03-05T04:00:23.058Z,94631.04
2019-03-05T04:02:52.275Z,94630.27
2019-03-05T04:05:21.458Z,94631.62
2019-03-05T04:07:50.736Z,94628.15
2019-03-05T04:10:20.081Z,94629.31
2019-03-05T04:12:49.143Z,94622.55
2019-03-05T04:15:19.750Z,94617.84
2019-03-05T04:17:49.065Z,94628.27
2019-03-05T04:20:23.556Z,94627.89
2019-03-05T04:22:52.905Z,94631.91
2019-03-05T04:25:22.007Z,94633.55
2019-03-05T04:27:50.996Z,94642.90
2019-03-05T04:30:20.278Z,94636.02
2019-03-05T04:32:49.384Z,94645.11
2019-03-05T04:35:18.443Z,94645.11
2019-03-05T04:37:47.366Z,94637.08
2019-03-05T04:40:17.003Z,94653.20
2019-03-05T04:42:46.018Z,94654.50
2019-03-05T04:45:31.781Z,94656.70
2019-03-05T04:48:00.788Z,94658.41
2019-03-05T04:50:37.303Z,94655.64
2019-03-05T04:53:06.597Z,94671.73
2019-03-05T04:55:35.835Z,94679.64
2019-03-05T04:58:04.940Z,94669.80
2019-03-05T05:00:35.053Z,94667.62
2019-03-05T05:03:04.162Z,94672.63
2019-03-05T05:05:33.672Z,94684.20
2019-03-05T05:08:03.428Z,94676.90
2019-03-05T05:10:32.830Z,94687.12
2019-03-05T05:13:01.792Z,94683.63
2019-03-05T05:15:32.784Z,94684.33
2019-03-05T05:18:01.831Z,94676.15
2019-03-05T05:20:31.121Z,94679.91
2019-03-05T05:23:00.107Z,94669.64
2019-03-05T05:25:29.264Z,94667.77
2019-03-05T05:27:58.379Z,94668.80
2019-03-05T05:30:30.330Z,94665.56
2019-03-05T05:32:59.461Z,94675.51
2019-03-05T05:35:28.662Z,94678.69
2019-03-05T05:37:57.690Z,94678.36
2019-03-05T05:40:29.624Z,94699.84
2019-03-05T05:42:58.859Z,94702.34
2019-03-05T05:45:32.549Z,94690.62
2019-03-05T05:48:02.791Z,94684.03
2019-03-05T05:50:32.068Z,94687.66
2019-03-05T05:53:01.120Z,94691.88
2019-03-05T05:55:30.206Z,94686.77
2019-03-05T05:57:59.427Z,94689.66
2019-03-05T06:00:28.701Z,94678.06
2019-03-05T06:02:58.111Z,94677.36
2019-03-05T06:05:27.757Z,94687.85
2019-03-05T06:07:57.056Z,94710.76
2019-03-05T06:10:26.259Z,94719.77
2019-03-05T06:12:55.238Z,94723.75
2019-03-05T06:15:24.242Z,94711.33
2019-03-05T06:17:53.751Z,94702.93
2019-03-05T06:20:23.160Z,94704.55
2019-03-05T06:22:52.125Z,94695.77
2019-03-05T06:25:21.404Z,94703.57
2019-03-05T06:27:50.931Z,94704.70
2019-03-05T06:30:20.531Z,94712.05
2019-03-05T06:32:49.659Z,94723.71
2019-03-05T06:35:18.926Z,94737.08
2019-03-05T06:37:48.573Z,94738.52
2019-03-05T06:40:18.226Z,94739.83
2019-03-05T06:42:48.309Z,94731.69
2019-03-05T06:45:17.888Z,94732.75
2019-03-05T06:47:46.941Z,94722.52
2019-03-05T06:50:16.570Z,94738.77
2019-03-05T06:52:45.547Z,94728.43
2019-03-05T06:55:14.931Z,94736.11
2019-03-05T06:57:44.719Z,94732.06
2019-03-05T07:00:16.800Z,94729.70
2019-03-05T07:02:45.856Z,94734.14
2019-03-05T07:06:24.592Z,94737.22
2019-03-05T07:09:00.864Z,94744.68
2019-03-05T07:11:40.295Z,94742.77
2019-03-05T07:14:15.858Z,94746.08
2019-03-05T07:16:55.163Z,94751.08
2019-03-05T07:19:34.017Z,94747.17
2019-03-05T07:22:21.155Z,94745.31
2019-03-05T07:24:51.217Z,94735.85
2019-03-05T07:27:30.968Z,94743.84
2019-03-05T07:30:03.688Z,94747.27
2019-03-05T07:32:33.514Z,94733.69
2019-03-05T07:35:02.527Z,94730.92
2019-03-05T07:37:31.592Z,94731.46
2019-03-05T07:40:01.200Z,94741.92
2019-03-05T07:42:30.385Z,94750.17
2019-03-05T07:44:59.812Z,94637.23
2019-03-05T07:47:28.922Z,94757.42
2019-03-05T07:49:58.001Z,94747.48
2019-03-05T07:52:27.255Z,94744.85
2019-03-05T07:54:56.430Z,94742.19
2019-03-05T07:57:25.418Z,94742.14
2019-03-05T07:59:55.213Z,94730.61
2019-03-05T08:02:24.325Z,94723.88
2019-03-05T08:04:53.687Z,94722.43
2019-03-05T08:07:23.595Z,94730.45
2019-03-05T08:09:52.535Z,94731.57
2019-03-05T08:12:35.759Z,94725.11
2019-03-05T08:15:18.317Z,94725.96
2019-03-05T08:17:47.268Z,94720.91
2019-03-05T08:20:16.983Z,94723.34
2019-03-05T08:22:45.973Z,94714.78
2019-03-05T08:25:15.844Z,94720.33
2019-03-05T08:27:44.880Z,94714.56
2019-03-05T08:30:15.314Z,94708.62
2019-03-05T08:32:44.300Z,94714.17
2019-03-05T08:35:14.505Z,94705.25
2019-03-05T08:37:44.643Z,94705.50
2019-03-05T08:40:14.057Z,94714.44
2019-03-05T08:42:44.159Z,94709.67
2019-03-05T08:45:14.291Z,94722.52
2019-03-05T08:47:43.473Z,94711.45
2019-03-05T08:50:13.052Z,94720.91
2019-03-05T08:52:42.403Z,94707.55
2019-03-05T08:55:11.581Z,94711.98
2019-03-05T08:57:42.299Z,94709.89
2019-03-05T09:00:13.199Z,94711.17
2019-03-05T09:02:48.635Z,94702.23
2019-03-05T09:05:11.683Z,94707.58
2019-03-05T09:07:40.849Z,94702.33
2019-03-05T09:10:12.501Z,94698.52
2019-03-05T09:12:42.447Z,94695.31
2019-03-05T09:15:13.437Z,94701.02
2019-03-05T09:17:42.441Z,94698.96
2019-03-05T09:20:13.307Z,94691.94
2019-03-05T09:22:42.582Z,94693.20
2019-03-05T09:25:12.681Z,94690.33
2019-03-05T09:27:42.771Z,94688.48
2019-03-05T09:30:15.277Z,94686.30
2019-03-05T09:32:44.777Z,94686.94
2019-03-05T09:35:13.995Z,94686.34
2019-03-05T09:37:43.303Z,94680.05
2019-03-05T09:40:15.675Z,94680.90
2019-03-05T09:42:45.464Z,94673.91
2019-03-05T09:45:16.198Z,94676.42
2019-03-05T09:47:45.907Z,94677.10
2019-03-05T09:50:16.037Z,94673.57
2019-03-05T09:52:54.525Z,94674.29
2019-03-05T09:55:16.600Z,94672.72
2019-03-05T09:57:45.751Z,94660.91
2019-03-05T10:00:17.333Z,94666.61
2019-03-05T10:02:46.433Z,94660.20
2019-03-05T10:05:16.107Z,94663.84
2019-03-05T10:07:45.411Z,94668.63
2019-03-05T10:10:17.002Z,94662.38
2019-03-05T10:12:45.956Z,94652.70
2019-03-05T10:15:17.323Z,94661.48
2019-03-05T10:17:46.364Z,94658.27
2019-03-05T10:20:17.776Z,94648.52
2019-03-05T10:22:47.324Z,94650.66
2019-03-05T10:25:18.140Z,94633.73
2019-03-05T10:27:47.316Z,94634.19
2019-03-05T10:30:24.870Z,94633.44
2019-03-05T10:32:47.706Z,94634.08
2019-03-05T10:35:16.773Z,94633.50
2019-03-05T10:37:45.853Z,94632.37
2019-03-05T10:40:15.691Z,94628.86
2019-03-05T10:42:44.896Z,94626.89
2019-03-05T10:45:16.073Z,94626.86
2019-03-05T10:47:44.941Z,94621.08
2019-03-05T10:50:16.845Z,94623.27
2019-03-05T10:52:45.917Z,94607.88
2019-03-05T10:55:25.699Z,94603.43
2019-03-05T10:57:45.119Z,94597.61
2019-03-05T11:00:17.251Z,94593.23
2019-03-05T11:02:47.050Z,94592.22
2019-03-05T11:05:16.165Z,94593.15
2019-03-05T11:07:45.631Z,94586.11
2019-03-05T11:10:15.116Z,94578.69
2019-03-05T11:12:45.316Z,94577.97
2019-03-05T11:15:17.963Z,94578.29
2019-03-05T11:17:47.678Z,94578.77
2019-03-05T11:20:17.703Z,94582.38
2019-03-05T11:22:46.848Z,94558.43
2019-03-05T11:25:17.038Z,94582.73
2019-03-05T11:27:46.216Z,94575.02
2019-03-05T11:30:17.560Z,94578.27
2019-03-05T11:32:46.706Z,94585.02
2019-03-05T11:35:17.529Z,94587.92
2019-03-05T11:37:46.512Z,94574.91
2019-03-05T11:40:21.125Z,94572.98
2019-03-05T11:42:45.107Z,94582.72
2019-03-05T11:45:18.880Z,94584.30
2019-03-05T11:47:48.004Z,94575.34
2019-03-05T11:50:17.334Z,94579.71
2019-03-05T11:52:46.423Z,94575.38
2019-03-05T11:55:17.215Z,94570.89
2019-03-05T11:57:46.919Z,94575.00
2019-03-05T12:00:19.236Z,94575.08
2019-03-05T12:02:48.275Z,94574.00
2019-03-05T12:05:17.730Z,94568.80
2019-03-05T12:07:46.689Z,94553.40
2019-03-05T12:10:17.171Z,94570.12
2019-03-05T12:12:46.223Z,94561.31
2019-03-05T12:15:16.885Z,94568.87
2019-03-05T12:17:45.929Z,94573.13
2019-03-05T12:20:15.217Z,94570.22
2019-03-05T12:22:44.803Z,94570.27
2019-03-05T12:25:15.737Z,94573.80
2019-03-05T12:27:45.332Z,94571.16
2019-03-05T12:30:18.060Z,94570.94
2019-03-05T12:32:47.643Z,94566.78
2019-03-05T12:35:17.126Z,94563.91
2019-03-05T12:37:46.289Z,94565.16
2019-03-05T12:40:16.688Z,94569.42
2019-03-05T12:42:45.834Z,94569.48
2019-03-05T12:45:15.246Z,94571.06
2019-03-05T12:47:45.042Z,94568.46
2019-03-05T12:50:16.459Z,94566.28
2019-03-05T12:52:45.889Z,94567.05
2019-03-05T12:55:15.462Z,94566.58
2019-03-05T12:57:45.161Z,94564.07
2019-03-05T13:00:17.909Z,94557.02
2019-03-05T13:02:46.941Z,94565.42
2019-03-05T13:05:16.545Z,94558.27
2019-03-05T13:07:45.307Z,94553.25
2019-03-05T13:10:16.150Z,94558.33
2019-03-05T13:12:45.354Z,94555.46
2019-03-05T13:15:17.128Z,94563.05
2019-03-05T13:17:47.157Z,94566.91
2019-03-05T13:20:16.343Z,94570.83
2019-03-05T13:22:46.361Z,94565.13
2019-03-05T13:25:16.384Z,94569.92
2019-03-05T13:27:45.848Z,94564.98
2019-03-05T13:30:17.683Z,94557.95
2019-03-05T13:32:46.617Z,94557.95
2019-03-05T13:35:16.475Z,94563.86
2019-03-05T13:37:46.674Z,94557.94
2019-03-05T13:40:17.983Z,94558.25
2019-03-05T13:42:47.261Z,94564.98
2019-03-05T13:45:16.486Z,94572.07
2019-03-05T13:47:56.719Z,94572.33
2019-03-05T13:52:41.311Z,94575.02
2019-03-05T13:58:25.663Z,94570.53
2019-03-05T14:00:54.947Z,94573.70
2019-03-05T14:03:29.860Z,94572.72
2019-03-05T14:06:43.318Z,94572.94
2019-03-05T14:09:17.713Z,94571.33
2019-03-05T14:11:48.019Z,94576.59
2019-03-05T14:14:22.955Z,94572.78
2019-03-05T14:16:58.163Z,94582.32
2019-03-05T14:19:28.098Z,94579.77
2019-03-05T14:21:58.144Z,94578.11
2019-03-05T14:24:27.405Z,94579.08
2019-03-05T14:26:58.234Z,94580.30
2019-03-05T14:29:29.274Z,94582.31
2019-03-05T14:31:56.749Z,94585.53
2019-03-05T14:34:25.988Z,94586.27
2019-03-05T14:36:55.917Z,94584.95
2019-03-05T14:39:28.231Z,94591.31
2019-03-05T14:41:57.752Z,94589.47
2019-03-05T14:44:26.766Z,94585.69
2019-03-05T14:46:58.839Z,94586.81
2019-03-05T14:49:28.721Z,94587.47
2019-03-05T14:51:58.052Z,94591.08
2019-03-05T14:54:27.547Z,94585.88
2019-03-05T14:56:57.307Z,94583.52
2019-03-05T14:59:26.799Z,94583.75
2019-03-05T15:01:56.453Z,94575.66
2019-03-05T15:04:26.417Z,94573.02
2019-03-05T15:06:55.574Z,94576.11
2019-03-05T15:09:24.742Z,94575.66
2019-03-05T15:11:54.335Z,94572.05
2019-03-05T15:14:23.595Z,94574.70
2019-03-05T15:16:53.002Z,94574.72
2019-03-05T15:19:22.631Z,94575.80
2019-03-05T15:21:51.813Z,94579.38
2019-03-05T15:24:21.029Z,94574.72
2019-03-05T15:26:50.938Z,94574.80
2019-03-05T15:29:20.829Z,94574.56
2019-03-05T15:31:50.474Z,94572.38
2019-03-05T15:34:19.805Z,94575.23
2019-03-05T15:36:51.924Z,94579.27
2019-03-05T15:39:18.181Z,94584.02
2019-03-05T15:41:47.221Z,94595.94
2019-03-05T15:44:16.735Z,94597.31
2019-03-05T15:46:46.353Z,94599.23
2019-03-05T15:49:15.470Z,94596.24
2019-03-05T15:51:44.344Z,94605.59
2019-03-05T15:54:13.540Z,94612.17
2019-03-05T15:56:42.786Z,94601.64
2019-03-05T15:59:11.878Z,94606.63
2019-03-05T16:01:42.184Z,94610.22
2019-03-05T16:04:11.343Z,94618.84
2019-03-05T16:06:40.341Z,94623.52
2019-03-05T16:09:17.756Z,94631.65
2019-03-05T16:11:46.919Z,94632.97
2019-03-05T16:14:16.408Z,94634.42
2019-03-05T16:16:45.317Z,94640.48
2019-03-05T16:19:16.545Z,94651.37
2019-03-05T16:21:43.731Z,94651.88
2019-03-05T16:24:12.963Z,94652.92
2019-03-05T16:26:42.650Z,94656.64
2019-03-05T16:29:11.727Z,94662.48
2019-03-05T16:31:49.818Z,94662.23
2019-03-05T16:34:23.316Z,94681.25
2019-03-05T16:36:57.623Z,94675.42
2019-03-05T16:40:05.136Z,94687.87
2019-03-05T16:42:41.909Z,94694.00
2019-03-05T16:45:22.896Z,94700.58
2019-03-05T16:48:01.706Z,94703.77
2019-03-05T16:50:36.650Z,94703.51
2019-03-05T16:53:15.825Z,94709.09
2019-03-05T16:56:55.138Z,94713.05
2019-03-05T17:01:36.971Z,94723.61
2019-03-05T17:04:12.576Z,94722.23
2019-03-05T17:07:46.184Z,94727.13
2019-03-05T17:10:20.060Z,94728.67
2019-03-05T17:12:49.001Z,94730.12
2019-03-05T17:15:18.278Z,94723.78
2019-03-05T17:17:47.143Z,94731.38
2019-03-05T17:20:16.844Z,94734.58
2019-03-05T17:22:45.860Z,94744.00
2019-03-05T17:25:16.119Z,94731.99
2019-03-05T17:27:45.349Z,94736.76
2019-03-05T17:30:15.548Z,94752.91
2019-03-05T17:32:44.707Z,94758.41
2019-03-05T17:35:13.893Z,94772.06
2019-03-05T17:37:43.005Z,94780.16
2019-03-05T17:40:12.211Z,94782.98
2019-03-05T17:42:41.380Z,94783.92
2019-03-05T17:45:13.442Z,94781.84
2019-03-05T17:47:42.824Z,94793.95
2019-03-05T17:50:12.212Z,94787.66
2019-03-05T17:52:41.507Z,94784.33
2019-03-05T17:55:12.813Z,94794.52
2019-03-05T17:57:41.849Z,94805.56
2019-03-05T18:00:12.788Z,94805.13
2019-03-05T18:02:41.818Z,94806.75
2019-03-05T18:05:10.979Z,94805.80
2019-03-05T18:07:40.545Z,94810.06
2019-03-05T18:10:10.058Z,94814.56
2019-03-05T18:12:38.991Z,94818.55
2019-03-05T18:15:08.980Z,94813.80
2019-03-05T18:17:38.456Z,94819.62
2019-03-05T18:20:09.239Z,94819.36
2019-03-05T18:22:38.231Z,94820.43
2019-03-05T18:25:08.003Z,94820.17
2019-03-05T18:27:37.248Z,94828.05
2019-03-05T18:30:09.074Z,94828.83
2019-03-05T18:32:38.210Z,94824.36
2019-03-05T18:35:07.741Z,94831.97
2019-03-05T18:37:37.248Z,94838.24
2019-03-05T18:40:06.931Z,94843.77
2019-03-05T18:42:36.242Z,94840.31
2019-03-05T18:45:07.500Z,94842.42
2019-03-05T18:47:36.432Z,94851.88
2019-03-05T18:50:05.649Z,94853.44
2019-03-05T18:52:34.604Z,94862.08
2019-03-05T18:55:03.640Z,94865.49
2019-03-05T18:57:32.837Z,94867.84
2019-03-05T19:00:02.550Z,94867.02
2019-03-05T19:02:32.180Z,94870.43
2019-03-05T19:05:01.336Z,94875.67
2019-03-05T19:07:31.134Z,94881.20
2019-03-05T19:10:01.283Z,94882.77
2019-03-05T19:12:30.200Z,94887.49
2019-03-05T19:14:59.441Z,94884.02
2019-03-05T19:17:28.533Z,94885.85
2019-03-05T19:19:57.768Z,94884.59
2019-03-05T19:22:26.877Z,94879.09
2019-03-05T19:24:56.604Z,94884.36
2019-03-05T19:27:26.284Z,94887.72
2019-03-05T19:29:55.513Z,94889.02
2019-03-05T19:32:24.883Z,94890.08
2019-03-05T19:34:54.445Z,94888.48
2019-03-05T19:37:23.421Z,94891.61
2019-03-05T19:39:53.787Z,94894.20
2019-03-05T19:42:22.979Z,94903.88
2019-03-05T19:44:53.168Z,94907.52
2019-03-05T19:47:23.529Z,94914.30
2019-03-05T19:49:53.212Z,94918.52
2019-03-05T19:52:22.187Z,94920.91
2019-03-05T19:54:51.499Z,94921.16
2019-03-05T19:57:20.503Z,94938.11
2019-03-05T19:59:49.553Z,94934.91
2019-03-05T20:02:19.652Z,94935.67
2019-03-05T20:04:48.812Z,94942.94
2019-03-05T20:07:18.012Z,94951.88
2019-03-05T20:09:47.192Z,94953.42
2019-03-05T20:12:16.470Z,94958.62
2019-03-05T20:14:46.187Z,94964.44
2019-03-05T20:17:15.142Z,94959.66
2019-03-05T20:19:43.995Z,94959.11
2019-03-05T20:22:12.848Z,94958.41
2019-03-05T20:24:42.539Z,94955.22
2019-03-05T20:27:16.066Z,94961.78
2019-03-05T20:29:40.683Z,94962.30
2019-03-05T20:32:09.931Z,94969.02
2019-03-05T20:34:39.076Z,94963.78
2019-03-05T20:37:08.183Z,94972.40
2019-03-05T20:39:37.292Z,94974.56
2019-03-05T20:42:06.983Z,94981.81
2019-03-05T20:44:36.096Z,94982.33
2019-03-05T20:47:05.338Z,94983.32
2019-03-05T20:49:34.827Z,94980.70
2019-03-05T20:52:05.640Z,94994.27
2019-03-05T20:54:34.637Z,94991.94
2019-03-05T20:57:03.979Z,94996.34
2019-03-05T20:59:33.209Z,95001.24
2019-03-05T21:02:03.079Z,95005.13
2019-03-05T21:04:32.472Z,95009.09
2019-03-05T21:07:01.845Z,95012.22
2019-03-05T21:09:31.354Z,95033.41
2019-03-05T21:12:00.493Z,95044.56
2019-03-05T21:14:29.447Z,95062.20
2019-03-05T21:16:58.686Z,95071.77
2019-03-05T21:19:27.716Z,95089.02
2019-03-05T21:21:56.725Z,95103.07
2019-03-05T21:24:26.010Z,95102.61
2019-03-05T21:26:55.195Z,95110.73
2019-03-05T21:29:25.488Z,95106.69
2019-03-05T21:31:54.692Z,95109.45
2019-03-05T21:34:23.873Z,95109.37
2019-03-05T21:36:52.842Z,95100.42
2019-03-05T21:39:22.134Z,95110.03
2019-03-05T21:41:51.252Z,95111.12
2019-03-05T21:44:20.633Z,95111.69
2019-03-05T21:46:49.877Z,95108.67
2019-03-05T21:49:19.040Z,95110.00
2019-03-05T21:51:48.094Z,95103.62
2019-03-05T21:54:17.233Z,95104.52
2019-03-05T21:56:46.491Z,95092.78
2019-03-05T21:59:16.243Z,95092.13
2019-03-05T22:01:46.222Z,95090.09
2019-03-05T22:04:15.359Z,95089.25
2019-03-05T22:06:44.970Z,95092.92
2019-03-05T22:09:14.894Z,95098.14
2019-03-05T22:11:44.621Z,95093.25
2019-03-05T22:14:14.194Z,95092.13
2019-03-05T22:16:43.995Z,95093.34
2019-03-05T22:19:13.323Z,95105.64
2019-03-05T22:21:42.682Z,95115.13
2019-03-05T22:24:11.766Z,95115.98
2019-03-05T22:26:40.600Z,95115.84
2019-03-05T22:29:09.633Z,95123.16
2019-03-05T22:31:38.663Z,95122.30
2019-03-05T22:34:08.724Z,95113.14
2019-03-05T22:36:37.748Z,95108.37
2019-03-05T22:39:07.335Z,95110.00
2019-03-05T22:41:38.351Z,95118.69
2019-03-05T22:44:06.051Z,95115.34
2019-03-05T22:46:36.027Z,95118.77
2019-03-05T22:49:05.191Z,95119.28
2019-03-05T22:51:34.368Z,95117.38
2019-03-05T22:54:03.840Z,95119.55
2019-03-05T22:56:32.891Z,95124.43
2019-03-05T22:59:02.688Z,95121.80
2019-03-05T23:01:37.045Z,95119.52
2019-03-05T23:04:06.373Z,95118.98
2019-03-05T23:06:35.553Z,95127.61
2019-03-05T23:09:05.714Z,95124.64
2019-03-05T23:11:34.955Z,95126.12
2019-03-05T23:14:04.088Z,95131.08
2019-03-05T23:16:33.211Z,95145.36
2019-03-05T23:19:03.229Z,95139.19
2019-03-05T23:21:32.468Z,95138.21
2019-03-05T23:24:01.521Z,95136.25
2019-03-05T23:26:31.448Z,95136.09
2019-03-05T23:29:00.679Z,95140.98
2019-03-05T23:31:29.831Z,95143.80
2019-03-05T23:33:59.465Z,95146.59
2019-03-05T23:36:28.451Z,95142.11
2019-03-05T23:38:57.625Z,95142.91
2019-03-05T23:41:27.189Z,95142.17
2019-03-05T23:43:56.776Z,95143.55
2019-03-05T23:46:26.199Z,95138.94
2019-03-05T23:48:55.111Z,95139.51
2019-03-05T23:51:24.400Z,95138.67
2019-03-05T23:53:53.688Z,95133.70
2019-03-05T23:56:23.063Z,95132.36
2019-03-05T23:58:52.112Z,95138.34
